createdAt,value
2022-09-12T00:00:35.471Z,13.17
2022-09-12T00:03:01.825Z,12.93
2022-09-12T00:05:28.220Z,12.82
2022-09-12T00:07:54.535Z,13.02
2022-09-12T00:10:20.842Z,12.88
2022-09-12T00:12:47.194Z,12.87
2022-09-12T00:15:13.527Z,12.85
2022-09-12T00:17:39.849Z,12.75
2022-09-12T00:20:07.466Z,12.65
2022-09-12T00:22:33.808Z,12.68
2022-09-12T00:25:00.526Z,12.67
2022-09-12T00:27:27.058Z,12.56
2022-09-12T00:29:53.404Z,12.63
2022-09-12T00:32:20.056Z,12.53
2022-09-12T00:34:46.387Z,12.56
2022-09-12T00:37:12.806Z,12.43
2022-09-12T00:39:39.172Z,12.48
2022-09-12T00:42:05.659Z,12.52
2022-09-12T00:44:34.953Z,12.57
2022-09-12T00:47:04.028Z,12.55
2022-09-12T00:49:30.286Z,12.59
2022-09-12T00:51:59.666Z,12.60
2022-09-12T00:54:27.209Z,12.51
2022-09-12T00:56:54.036Z,12.46
2022-09-12T00:59:21.658Z,12.48
2022-09-12T01:01:48.525Z,12.46
2022-09-12T01:04:14.900Z,12.50
2022-09-12T01:06:41.754Z,12.32
2022-09-12T01:09:08.534Z,12.27
2022-09-12T01:11:35.897Z,12.23
2022-09-12T01:14:02.247Z,12.19
2022-09-12T01:16:28.703Z,12.25
2022-09-12T01:19:02.395Z,12.35
2022-09-12T01:21:51.930Z,12.25
2022-09-12T01:24:21.031Z,12.22
2022-09-12T01:27:22.808Z,12.15
2022-09-12T01:30:01.339Z,12.07
2022-09-12T01:32:42.702Z,12.09
2022-09-12T01:35:27.886Z,12.13
2022-09-12T01:37:54.277Z,11.98
2022-09-12T01:40:26.839Z,12.00
2022-09-12T01:43:03.272Z,11.88
2022-09-12T01:45:39.445Z,11.95
2022-09-12T01:48:07.618Z,12.07
2022-09-12T01:50:35.064Z,12.11
2022-09-12T01:53:08.883Z,11.97
2022-09-12T01:55:36.561Z,12.06
2022-09-12T01:58:32.348Z,12.08
2022-09-12T02:01:07.750Z,11.96
2022-09-12T02:03:37.978Z,11.96
2022-09-12T02:06:06.632Z,11.96
2022-09-12T02:08:40.622Z,11.85
2022-09-12T02:11:07.830Z,11.79
2022-09-12T02:13:39.429Z,12.07
2022-09-12T02:16:10.647Z,12.05
2022-09-12T02:18:38.586Z,12.07
2022-09-12T02:21:05.346Z,12.17
2022-09-12T02:23:31.728Z,12.24
2022-09-12T02:26:00.231Z,12.30
2022-09-12T02:28:27.731Z,12.25
2022-09-12T02:31:03.277Z,12.20
2022-09-12T02:33:35.376Z,12.20
2022-09-12T02:36:14.372Z,12.16
2022-09-12T02:38:40.677Z,12.07
2022-09-12T02:41:13.884Z,11.97
2022-09-12T02:43:40.543Z,11.96
2022-09-12T02:46:07.365Z,11.93
2022-09-12T02:48:34.574Z,11.96
2022-09-12T02:51:00.950Z,12.02
2022-09-12T02:53:27.355Z,11.97
2022-09-12T02:55:53.689Z,11.85
2022-09-12T02:58:23.608Z,11.89
2022-09-12T03:01:13.516Z,11.92
2022-09-12T03:03:53.160Z,11.85
2022-09-12T03:06:40.892Z,11.84
2022-09-12T03:09:15.810Z,11.81
2022-09-12T03:11:48.535Z,11.58
2022-09-12T03:14:17.820Z,11.56
2022-09-12T03:16:53.597Z,11.58
2022-09-12T03:19:40.168Z,11.50
2022-09-12T03:22:11.533Z,11.40
2022-09-12T03:24:43.816Z,11.36
2022-09-12T03:27:12.598Z,11.51
2022-09-12T03:29:38.938Z,11.48
2022-09-12T03:32:05.271Z,11.47
2022-09-12T03:34:31.585Z,11.42
2022-09-12T03:36:58.188Z,11.38
2022-09-12T03:39:24.586Z,11.39
2022-09-12T03:41:51.169Z,11.37
2022-09-12T03:44:17.683Z,11.29
2022-09-12T03:46:44.064Z,11.25
2022-09-12T03:49:10.828Z,11.20
2022-09-12T03:51:37.480Z,11.17
2022-09-12T03:54:04.071Z,11.12
2022-09-12T03:56:30.377Z,11.10
2022-09-12T03:58:56.740Z,11.28
2022-09-12T04:01:23.122Z,11.76
2022-09-12T04:03:50.353Z,11.89
2022-09-12T04:06:17.360Z,11.57
2022-09-12T04:08:43.829Z,11.43
2022-09-12T04:11:11.696Z,11.33
2022-09-12T04:13:38.293Z,11.37
2022-09-12T04:16:04.859Z,11.33
2022-09-12T04:18:31.187Z,11.56
2022-09-12T04:20:57.507Z,12.13
2022-09-12T04:23:23.865Z,12.11
2022-09-12T04:25:54.047Z,11.82
2022-09-12T04:28:20.440Z,11.63
2022-09-12T04:30:46.802Z,11.60
2022-09-12T04:33:13.202Z,11.54
2022-09-12T04:35:39.563Z,11.80
2022-09-12T04:38:05.898Z,12.12
2022-09-12T04:40:33.274Z,12.14
2022-09-12T04:42:59.638Z,12.10
2022-09-12T04:45:25.959Z,11.72
2022-09-12T04:47:52.341Z,11.65
2022-09-12T04:50:19.993Z,11.55
2022-09-12T04:52:52.747Z,11.46
2022-09-12T04:55:19.350Z,11.24
2022-09-12T04:57:45.681Z,11.34
2022-09-12T05:00:15.225Z,11.23
2022-09-12T05:02:41.723Z,11.16
2022-09-12T05:05:08.424Z,11.23
2022-09-12T05:07:34.735Z,11.30
2022-09-12T05:10:01.091Z,11.29
2022-09-12T05:12:27.545Z,11.27
2022-09-12T05:14:54.155Z,11.37
2022-09-12T05:17:20.476Z,11.36
2022-09-12T05:19:47.611Z,11.31
2022-09-12T05:22:13.936Z,11.29
2022-09-12T05:24:47.246Z,11.34
2022-09-12T05:27:16.228Z,11.35
2022-09-12T05:29:43.403Z,11.34
2022-09-12T05:32:09.808Z,11.42
2022-09-12T05:34:36.140Z,11.44
2022-09-12T05:37:02.459Z,11.43
2022-09-12T05:39:28.798Z,11.52
2022-09-12T05:41:55.828Z,11.53
2022-09-12T05:44:22.231Z,11.68
2022-09-12T05:46:51.241Z,11.68
2022-09-12T05:49:17.625Z,11.79
2022-09-12T05:51:44.947Z,11.84
2022-09-12T05:54:12.063Z,11.84
2022-09-12T05:56:39.392Z,11.91
2022-09-12T05:59:06.640Z,11.90
2022-09-12T06:01:33.610Z,11.98
2022-09-12T06:04:00.915Z,12.13
2022-09-12T06:06:28.082Z,12.20
2022-09-12T06:08:56.285Z,12.28
2022-09-12T06:11:23.404Z,12.27
2022-09-12T06:13:50.959Z,12.22
2022-09-12T06:16:21.737Z,12.31
2022-09-12T06:18:48.495Z,12.27
2022-09-12T06:21:14.860Z,12.27
2022-09-12T06:23:41.656Z,12.34
2022-09-12T06:26:09.288Z,12.33
2022-09-12T06:28:36.140Z,12.51
2022-09-12T06:31:06.296Z,12.58
2022-09-12T06:33:36.028Z,13.01
2022-09-12T06:36:10.157Z,13.34
2022-09-12T06:38:38.630Z,13.67
2022-09-12T06:41:05.505Z,13.90
2022-09-12T06:43:32.398Z,14.23
2022-09-12T06:45:59.012Z,14.42
2022-09-12T06:48:25.364Z,14.52
2022-09-12T06:51:10.436Z,14.60
2022-09-12T06:53:37.171Z,14.79
2022-09-12T06:56:19.494Z,14.80
2022-09-12T06:58:46.104Z,14.95
2022-09-12T07:01:32.891Z,15.03
2022-09-12T07:04:00.173Z,15.13
2022-09-12T07:06:31.513Z,15.20
2022-09-12T07:08:58.422Z,15.28
2022-09-12T07:11:25.762Z,15.34
2022-09-12T07:13:52.810Z,15.40
2022-09-12T07:16:20.078Z,15.48
2022-09-12T07:18:56.554Z,15.55
2022-09-12T07:21:22.922Z,15.64
2022-09-12T07:23:49.320Z,15.73
2022-09-12T07:26:15.917Z,15.61
2022-09-12T07:28:42.347Z,15.75
2022-09-12T07:31:13.092Z,15.86
2022-09-12T07:33:39.778Z,15.92
2022-09-12T07:36:11.661Z,16.00
2022-09-12T07:38:38.504Z,16.15
2022-09-12T07:41:14.631Z,16.19
2022-09-12T07:43:41.941Z,16.45
2022-09-12T07:46:08.404Z,16.44
2022-09-12T07:48:34.971Z,16.62
2022-09-12T07:51:01.780Z,16.57
2022-09-12T07:53:30.995Z,16.85
2022-09-12T07:55:57.363Z,16.93
2022-09-12T07:58:26.569Z,17.19
2022-09-12T08:00:52.952Z,17.30
2022-09-12T08:03:19.583Z,17.29
2022-09-12T08:05:45.899Z,17.45
2022-09-12T08:08:12.227Z,17.41
2022-09-12T08:10:38.545Z,17.40
2022-09-12T08:13:04.867Z,17.65
2022-09-12T08:15:31.488Z,17.59
2022-09-12T08:17:57.953Z,17.58
2022-09-12T08:20:28.158Z,17.26
2022-09-12T08:22:54.765Z,17.51
2022-09-12T08:25:21.105Z,17.68
2022-09-12T08:27:48.289Z,17.75
2022-09-12T08:30:14.635Z,17.73
2022-09-12T08:32:40.979Z,17.83
2022-09-12T08:35:08.035Z,17.99
2022-09-12T08:37:34.371Z,18.05
2022-09-12T08:40:00.733Z,18.21
2022-09-12T08:42:37.849Z,18.34
2022-09-12T08:45:04.700Z,18.41
2022-09-12T08:47:35.441Z,18.11
2022-09-12T08:50:05.094Z,17.93
2022-09-12T08:52:46.791Z,18.21
2022-09-12T08:55:24.453Z,18.21
2022-09-12T08:57:51.934Z,18.43
2022-09-12T09:00:19.176Z,18.68
2022-09-12T09:02:54.847Z,18.72
2022-09-12T09:05:24.037Z,18.75
2022-09-12T09:07:53.393Z,18.74
2022-09-12T09:10:38.830Z,18.66
2022-09-12T09:13:43.525Z,18.50
2022-09-12T09:16:13.755Z,18.20
2022-09-12T09:18:40.235Z,18.16
2022-09-12T09:21:15.667Z,18.43
2022-09-12T09:23:42.760Z,18.48
2022-09-12T09:26:14.646Z,18.38
2022-09-12T09:28:44.142Z,18.32
2022-09-12T09:31:12.691Z,18.19
2022-09-12T09:33:39.106Z,17.90
2022-09-12T09:36:08.163Z,18.17
2022-09-12T09:38:43.600Z,18.26
2022-09-12T09:41:22.190Z,18.10
2022-09-12T09:43:48.602Z,17.95
2022-09-12T09:46:15.024Z,18.16
2022-09-12T09:48:41.967Z,18.25
2022-09-12T09:51:09.299Z,18.43
2022-09-12T09:53:38.738Z,18.54
2022-09-12T09:56:12.799Z,18.49
2022-09-12T09:58:39.254Z,18.44
2022-09-12T10:01:06.276Z,18.55
2022-09-12T10:03:39.105Z,18.52
2022-09-12T10:06:08.543Z,18.77
2022-09-12T10:08:35.794Z,18.85
2022-09-12T10:11:03.234Z,19.05
2022-09-12T10:13:37.583Z,19.08
2022-09-12T10:16:05.504Z,18.92
2022-09-12T10:18:42.305Z,19.35
2022-09-12T10:21:29.653Z,19.30
2022-09-12T10:24:15.036Z,19.29
2022-09-12T10:26:41.417Z,19.43
2022-09-12T10:29:12.781Z,19.31
2022-09-12T10:31:46.662Z,19.49
2022-09-12T10:34:21.071Z,19.52
2022-09-12T10:36:47.458Z,19.68
2022-09-12T10:39:18.471Z,19.79
2022-09-12T10:41:44.806Z,19.91
2022-09-12T10:44:14.851Z,19.46
2022-09-12T10:46:41.181Z,19.48
2022-09-12T10:49:20.022Z,19.42
2022-09-12T10:51:46.563Z,19.19
2022-09-12T10:54:13.210Z,19.14
2022-09-12T10:56:42.067Z,19.47
2022-09-12T10:59:08.452Z,19.75
2022-09-12T11:01:34.786Z,19.58
2022-09-12T11:04:19.991Z,19.65
2022-09-12T11:07:01.643Z,19.78
2022-09-12T11:09:31.208Z,20.01
2022-09-12T11:11:57.777Z,20.28
2022-09-12T11:14:24.047Z,19.80
2022-09-12T11:16:53.131Z,19.71
2022-09-12T11:19:38.318Z,20.02
2022-09-12T11:22:07.685Z,20.15
2022-09-12T11:24:46.017Z,20.10
2022-09-12T11:27:18.092Z,19.90
2022-09-12T11:29:52.299Z,20.21
2022-09-12T11:32:21.873Z,20.37
2022-09-12T11:35:01.255Z,20.43
2022-09-12T11:37:49.377Z,20.53
2022-09-12T11:40:20.244Z,20.71
2022-09-12T11:42:46.758Z,20.75
2022-09-12T11:45:14.735Z,20.76
2022-09-12T11:47:41.319Z,21.12
2022-09-12T11:50:15.439Z,20.98
2022-09-12T11:52:41.813Z,21.12
2022-09-12T11:55:18.473Z,20.85
2022-09-12T11:57:57.906Z,21.00
2022-09-12T12:00:24.216Z,20.67
2022-09-12T12:03:02.781Z,20.95
2022-09-12T12:05:31.453Z,21.28
2022-09-12T12:07:58.593Z,20.47
2022-09-12T12:10:41.230Z,20.84
2022-09-12T12:13:18.007Z,21.44
2022-09-12T12:15:48.607Z,22.00
2022-09-12T12:18:19.007Z,22.31
2022-09-12T12:20:45.579Z,22.14
2022-09-12T12:23:22.620Z,22.65
2022-09-12T12:25:52.903Z,22.56
2022-09-12T12:28:50.564Z,22.69
2022-09-12T12:31:17.058Z,21.94
2022-09-12T12:33:43.364Z,21.69
2022-09-12T12:36:09.801Z,22.30
2022-09-12T12:38:36.933Z,22.17
2022-09-12T12:41:18.463Z,22.04
2022-09-12T12:43:48.279Z,21.97
2022-09-12T12:46:15.108Z,22.27
2022-09-12T12:48:52.090Z,22.51
2022-09-12T12:51:29.941Z,22.77
2022-09-12T12:53:56.332Z,22.65
2022-09-12T12:56:25.706Z,23.30
2022-09-12T12:58:57.219Z,23.71
2022-09-12T13:01:23.552Z,23.47
2022-09-12T13:03:53.192Z,23.72
2022-09-12T13:06:32.588Z,23.55
2022-09-12T13:09:00.455Z,23.75
2022-09-12T13:11:31.609Z,23.88
2022-09-12T13:13:58.780Z,24.23
2022-09-12T13:16:31.596Z,24.19
2022-09-12T13:18:58.013Z,24.04
2022-09-12T13:21:24.336Z,24.04
2022-09-12T13:24:02.093Z,23.50
2022-09-12T13:26:28.867Z,23.25
2022-09-12T13:29:10.782Z,23.66
2022-09-12T13:31:37.110Z,23.52
2022-09-12T13:34:04.731Z,23.80
2022-09-12T13:36:37.306Z,23.99
2022-09-12T13:39:15.959Z,23.69
2022-09-12T13:41:42.282Z,23.72
2022-09-12T13:44:09.699Z,23.97
2022-09-12T13:46:36.105Z,23.85
2022-09-12T13:49:05.969Z,23.68
2022-09-12T13:51:32.508Z,23.87
2022-09-12T13:54:00.149Z,24.16
2022-09-12T13:56:26.545Z,24.17
2022-09-12T13:58:54.720Z,23.64
2022-09-12T14:01:21.064Z,24.14
2022-09-12T14:04:12.900Z,23.72
2022-09-12T14:06:50.139Z,23.76
2022-09-12T14:09:26.854Z,23.61
2022-09-12T14:11:53.683Z,23.60
2022-09-12T14:14:27.467Z,23.34
2022-09-12T14:16:54.898Z,23.57
2022-09-12T14:19:22.128Z,23.73
2022-09-12T14:21:49.461Z,23.97
2022-09-12T14:24:15.819Z,24.16
2022-09-12T14:26:42.203Z,23.97
2022-09-12T14:29:08.570Z,23.47
2022-09-12T14:31:35.698Z,23.08
2022-09-12T14:34:09.654Z,23.06
2022-09-12T14:36:49.013Z,22.56
2022-09-12T14:39:17.625Z,22.35
2022-09-12T14:41:44.032Z,22.24
2022-09-12T14:44:23.083Z,22.22
2022-09-12T14:46:49.446Z,21.90
2022-09-12T14:49:16.922Z,22.03
2022-09-12T14:51:51.110Z,21.71
2022-09-12T14:54:30.272Z,21.75
2022-09-12T14:56:57.472Z,21.67
2022-09-12T14:59:27.741Z,21.54
2022-09-12T15:02:14.371Z,21.62
2022-09-12T15:04:41.074Z,21.54
2022-09-12T15:07:14.680Z,21.46
2022-09-12T15:09:46.464Z,21.33
2022-09-12T15:12:13.631Z,21.33
2022-09-12T15:14:39.980Z,21.43
2022-09-12T15:17:06.347Z,21.34
2022-09-12T15:19:32.700Z,21.52
2022-09-12T15:21:59.041Z,21.30
2022-09-12T15:24:25.598Z,21.29
2022-09-12T15:26:52.634Z,21.12
2022-09-12T15:29:19.034Z,21.08
2022-09-12T15:31:46.207Z,21.01
2022-09-12T15:34:12.544Z,20.94
2022-09-12T15:36:38.876Z,20.94
2022-09-12T15:39:05.281Z,20.76
2022-09-12T15:41:32.133Z,20.88
2022-09-12T15:43:58.559Z,20.64
2022-09-12T15:46:24.981Z,20.60
2022-09-12T15:48:51.357Z,20.56
2022-09-12T15:51:18.419Z,20.59
2022-09-12T15:53:44.926Z,20.57
2022-09-12T15:56:11.516Z,20.54
2022-09-12T15:58:49.787Z,20.55
2022-09-12T16:01:23.878Z,20.47
2022-09-12T16:03:50.230Z,20.34
2022-09-12T16:06:16.563Z,20.42
2022-09-12T16:08:43.237Z,20.30
2022-09-12T16:11:12.193Z,20.27
2022-09-12T16:13:38.519Z,20.25
2022-09-12T16:16:04.924Z,20.28
2022-09-12T16:18:31.275Z,20.35
2022-09-12T16:20:57.790Z,20.24
2022-09-12T16:23:24.095Z,20.21
2022-09-12T16:26:00.064Z,20.11
2022-09-12T16:28:26.728Z,20.14
2022-09-12T16:30:56.703Z,20.05
2022-09-12T16:33:23.052Z,19.96
2022-09-12T16:35:51.318Z,19.85
2022-09-12T16:38:17.883Z,19.87
2022-09-12T16:40:44.266Z,19.79
2022-09-12T16:43:10.635Z,19.59
2022-09-12T16:45:37.326Z,19.36
2022-09-12T16:48:03.705Z,19.26
2022-09-12T16:50:30.355Z,19.11
2022-09-12T16:52:56.700Z,18.91
2022-09-12T16:55:23.119Z,18.82
2022-09-12T16:57:49.454Z,18.82
2022-09-12T17:00:16.065Z,18.81
2022-09-12T17:02:42.571Z,18.75
2022-09-12T17:05:09.564Z,18.57
2022-09-12T17:07:35.946Z,18.53
2022-09-12T17:10:02.329Z,18.49
2022-09-12T17:12:28.746Z,18.47
2022-09-12T17:14:55.124Z,18.40
2022-09-12T17:17:21.543Z,18.39
2022-09-12T17:19:47.883Z,18.19
2022-09-12T17:22:14.223Z,18.18
2022-09-12T17:24:40.652Z,18.00
2022-09-12T17:27:07.100Z,17.99
2022-09-12T17:29:35.112Z,18.03
2022-09-12T17:32:01.552Z,17.96
2022-09-12T17:34:27.942Z,17.76
2022-09-12T17:36:54.279Z,17.89
2022-09-12T17:39:20.594Z,17.82
2022-09-12T17:41:47.104Z,17.83
2022-09-12T17:44:14.188Z,17.83
2022-09-12T17:46:40.642Z,17.90
2022-09-12T17:49:08.216Z,17.87
2022-09-12T17:51:34.752Z,17.84
2022-09-12T17:54:05.506Z,17.88
2022-09-12T17:56:32.051Z,17.88
2022-09-12T17:58:58.583Z,17.88
2022-09-12T18:01:43.522Z,17.86
2022-09-12T18:04:10.714Z,17.83
2022-09-12T18:06:37.044Z,17.90
2022-09-12T18:09:04.286Z,17.90
2022-09-12T18:11:30.667Z,18.13
2022-09-12T18:14:00.100Z,18.25
2022-09-12T18:16:26.635Z,18.16
2022-09-12T18:18:52.947Z,18.23
2022-09-12T18:21:19.818Z,18.04
2022-09-12T18:23:46.522Z,17.95
2022-09-12T18:26:13.582Z,17.95
2022-09-12T18:28:40.732Z,17.91
2022-09-12T18:31:10.443Z,17.85
2022-09-12T18:33:37.911Z,17.80
2022-09-12T18:36:04.840Z,17.76
2022-09-12T18:38:31.207Z,17.67
2022-09-12T18:41:04.321Z,17.62
2022-09-12T18:43:30.680Z,17.64
2022-09-12T18:45:57.102Z,17.60
2022-09-12T18:48:23.444Z,17.47
2022-09-12T18:50:49.784Z,17.38
2022-09-12T18:53:16.094Z,17.32
2022-09-12T18:55:42.888Z,17.19
2022-09-12T18:58:09.233Z,17.07
2022-09-12T19:00:36.260Z,16.93
2022-09-12T19:03:02.586Z,16.77
2022-09-12T19:05:28.917Z,16.87
2022-09-12T19:07:55.471Z,17.15
2022-09-12T19:10:21.802Z,17.21
2022-09-12T19:12:48.115Z,17.27
2022-09-12T19:15:14.456Z,17.41
2022-09-12T19:17:40.904Z,17.55
2022-09-12T19:20:07.359Z,17.61
2022-09-12T19:22:33.721Z,17.60
2022-09-12T19:25:00.113Z,17.58
2022-09-12T19:27:26.838Z,17.65
2022-09-12T19:29:53.207Z,17.75
2022-09-12T19:32:19.530Z,17.91
2022-09-12T19:34:45.905Z,18.02
2022-09-12T19:37:12.274Z,17.99
2022-09-12T19:39:39.066Z,17.89
2022-09-12T19:42:05.467Z,18.04
2022-09-12T19:44:31.826Z,18.22
2022-09-12T19:46:58.486Z,17.79
2022-09-12T19:49:24.811Z,17.86
2022-09-12T19:51:51.141Z,17.42
2022-09-12T19:54:17.762Z,17.34
2022-09-12T19:56:44.078Z,16.91
2022-09-12T19:59:10.534Z,16.59
2022-09-12T20:01:37.487Z,16.56
2022-09-12T20:04:04.305Z,16.65
2022-09-12T20:06:30.619Z,16.94
2022-09-12T20:08:57.942Z,16.79
2022-09-12T20:11:24.480Z,16.52
2022-09-12T20:13:50.829Z,16.44
2022-09-12T20:16:21.714Z,16.40
2022-09-12T20:18:49.349Z,16.43
2022-09-12T20:21:16.703Z,16.33
2022-09-12T20:23:43.240Z,16.43
2022-09-12T20:26:09.647Z,15.97
2022-09-12T20:28:36.484Z,16.47
2022-09-12T20:31:03.497Z,16.23
2022-09-12T20:33:29.954Z,16.47
2022-09-12T20:36:03.495Z,16.50
2022-09-12T20:38:29.806Z,16.26
2022-09-12T20:40:56.141Z,16.51
2022-09-12T20:43:22.497Z,16.44
2022-09-12T20:45:48.852Z,16.34
2022-09-12T20:48:15.179Z,16.34
2022-09-12T20:50:41.514Z,16.22
2022-09-12T20:53:07.825Z,16.38
2022-09-12T20:55:34.154Z,16.55
2022-09-12T20:58:00.457Z,16.67
2022-09-12T21:00:26.794Z,16.72
2022-09-12T21:02:53.164Z,16.86
2022-09-12T21:05:19.539Z,16.89
2022-09-12T21:07:45.857Z,16.93
2022-09-12T21:10:13.632Z,16.61
2022-09-12T21:12:39.962Z,16.25
2022-09-12T21:15:06.777Z,15.91
2022-09-12T21:17:33.103Z,16.06
2022-09-12T21:19:59.435Z,16.10
2022-09-12T21:22:25.756Z,16.21
2022-09-12T21:24:52.107Z,16.31
2022-09-12T21:27:18.440Z,16.51
2022-09-12T21:29:44.753Z,16.69
2022-09-12T21:32:14.040Z,16.82
2022-09-12T21:34:41.776Z,16.82
2022-09-12T21:37:08.132Z,16.74
2022-09-12T21:39:34.445Z,16.76
2022-09-12T21:42:01.018Z,16.78
2022-09-12T21:44:27.403Z,16.77
2022-09-12T21:46:53.861Z,16.76
2022-09-12T21:49:20.256Z,16.83
2022-09-12T21:51:46.677Z,16.85
2022-09-12T21:54:12.990Z,16.85
2022-09-12T21:56:39.402Z,16.89
2022-09-12T21:59:05.736Z,16.93
2022-09-12T22:01:32.133Z,16.76
2022-09-12T22:03:58.654Z,16.71
2022-09-12T22:06:25.052Z,16.76
2022-09-12T22:08:51.364Z,16.79
2022-09-12T22:11:19.777Z,16.54
2022-09-12T22:13:46.179Z,16.52
2022-09-12T22:16:12.652Z,16.49
2022-09-12T22:18:39.079Z,16.65
2022-09-12T22:21:06.396Z,16.91
2022-09-12T22:23:51.485Z,17.01
2022-09-12T22:26:18.023Z,17.06
2022-09-12T22:28:44.363Z,17.07
2022-09-12T22:31:12.010Z,17.05
2022-09-12T22:33:38.405Z,17.07
2022-09-12T22:36:04.974Z,17.04
2022-09-12T22:38:31.361Z,16.85
2022-09-12T22:41:01.043Z,16.87
2022-09-12T22:43:27.807Z,16.85
2022-09-12T22:45:54.197Z,16.59
2022-09-12T22:48:20.505Z,16.47
2022-09-12T22:50:46.891Z,16.66
2022-09-12T22:53:13.214Z,16.65
2022-09-12T22:55:39.726Z,16.74
2022-09-12T22:58:06.040Z,16.81
2022-09-12T23:00:32.475Z,16.79
2022-09-12T23:02:58.857Z,16.52
2022-09-12T23:05:25.201Z,16.45
2022-09-12T23:07:51.557Z,16.40
2022-09-12T23:10:17.887Z,16.47
2022-09-12T23:12:44.235Z,16.34
2022-09-12T23:15:11.271Z,16.33
2022-09-12T23:17:37.596Z,16.37
2022-09-12T23:20:04.671Z,16.39
2022-09-12T23:22:30.999Z,16.38
2022-09-12T23:24:57.311Z,16.38
2022-09-12T23:27:25.922Z,16.34
2022-09-12T23:29:52.353Z,16.36
2022-09-12T23:32:20.046Z,16.13
2022-09-12T23:34:47.124Z,15.78
2022-09-12T23:37:13.455Z,15.84
2022-09-12T23:39:39.853Z,15.56
2022-09-12T23:42:06.236Z,15.11
2022-09-12T23:44:32.580Z,15.02
2022-09-12T23:46:58.898Z,15.03
2022-09-12T23:49:25.204Z,15.02
2022-09-12T23:51:51.532Z,15.35
2022-09-12T23:54:17.838Z,15.25
2022-09-12T23:56:44.172Z,15.22
2022-09-12T23:59:10.504Z,15.29
